Detall de PIREP

Printer-friendly versionPDF version

[2013/03/19 15:42:00]
Flight IATA:CT3224
Pilot Number:012
Company ICAO:CAT
Aircraft Type:A320/E
PAX:150
Departing Airport: LEPA
Destination Airport: LJLJ
Alternate Airport:LDZA
Online: VATSIM
Route:MEROS UN853 LUMAS UM985 GEN UM859 BARPI
Flight Level:F360
No Slew and time accel
No pause
Crash detect
Detect pilot in Cockpit between each 30 and 45 minutes
15:42 Zero fuel Weight: 125564 Lbs, Fuel Weight: 20555 Lbs
15:42 VATSIM:LEPA 191530Z 23011KT 9999 FEW030 16/11 Q1003 NOSIG
15:42 VATSIM:LJLJ 191530Z 25007KT 220V300 9999 FEW040 11/M00 Q1002 NOSIG
15:42 VOICE CATALONIAN
15:43 Parking Brakes off
15:46 Take-off
15:46 Take off Weight: 145485 Lbs
15:46 Wind: 222º @ 012 Knots Heading: 237º
15:46 POS N39º 33´ 13´´ E002º 43´ 29´´
15:46 Gear Up: 170 Knots
15:46 Flaps:3 at 170 Knots
15:47 Flaps:2 at 197 Knots
15:47 Flaps:1 at 200 Knots
15:47 Flaps:0 at 220 Knots
16:01 Wind:253º@067 Knots Heading: 026º Ground Speed: 508 Knots Altitude 29389 ft
16:06 TOC
16:06 Fuel Weight: 15567 Lb
16:16 Wind:262º@073 Knots Heading: 032º Ground Speed: 497 Knots Altitude 35731 ft
16:31 Wind:266º@072 Knots Heading: 049º Ground Speed: 507 Knots Altitude 35666 ft
16:46 Wind:269º@066 Knots Heading: 085º Ground Speed: 513 Knots Altitude 35646 ft
16:59 TOD
16:59 Fuel Weight: 10864 Lb
17:01 Wind:275º@078 Knots Heading: 053º Ground Speed: 517 Knots Altitude 31794 ft
17:16 Wind:271º@001 Knots Heading: 077º Ground Speed: 267 Knots Altitude 6197 ft
17:18 Flaps:1 at 217 Knots
17:18 Flaps:3 at 203 Knots
17:19 Gear Down: 177 Knots
17:19 Flaps:4 at 167 Knots
17:19 Flaps:5 at 146 Knots
17:23 TouchDown:Rate -173 ft/min Speed: 135 Knots
17:23 VATSIM:LJLJ 191700Z 24004KT 9999 FEW040 08/01 Q1002 NOSIG
17:23 Land
17:23 Wind:242º@005 Knots
17:23 Heading: 304º
17:23 Flight Duration: 01:37
17:23 Landing Weight: 134775 Lbs
17:23 POS N46º 13´ 20´´ E014º 27´ 36´´
17:24 Parking brakes on
17:24 Block to Block Duration: 01:41
17:24 Final Fuel: 9129 Lbls
17:24 Spent Fuel: 11426 Lbls
17:24 Flight Length: 716 NM
17:24 TOD Land Length: 128 NM

Exportar CSV

Powered by Drupal - Modified by Danger4k